Home   Weather   France   Versailles   Past weeks
Flag for France

Past Weather in Versailles, Yvelines, France — Yesterday and Last 2 Weeks

Currently: 77 °F. Sunny. (Weather station: Villacoublay, France). See more current weather

Past Weather in Versailles — Graph

°F

Versailles Temperature Yesterday

Maximum temperature yesterday: 79 °F (at 4:00 pm)
Minimum temperature yesterday: 57 °F (at 6:00 am)
Average temperature yesterday: 69 °F

High & Low Weather Summary for the Past Weeks

 TemperatureHumidityPressure
High93 °F (Aug 3, 5:00 pm)94% (Jul 27, 5:30 am)30.33 "Hg (Jul 27, 5:30 am)
Low55 °F (Jul 27, 5:30 am)25% (Aug 8, 5:00 pm)29.86 "Hg (Jul 25, 4:30 am)
Average71 °F55%30.08 "Hg
* Reported Jul 24 8:00 pm — Aug 8 8:00 pm, Versailles. Weather by CustomWeather, © 2022

Note: Actual official high and low records may vary slightly from our data, if they occured in-between our weather recording intervals... More about our weather records

Versailles Weather History for the Previous 24 Hours

Scroll right to see more
 ConditionsComfort  
Time TempWeatherWind HumidityBarometerVisibility
8:00 pm
Mon, Aug 8
79 °FPassing clouds.13 mph30%30.21 "HgN/A
7:00 pm81 °FPassing clouds.14 mph28%30.18 "HgN/A
6:30 pm82 °FPassing clouds.13 mph25%30.18 "HgN/A
6:00 pm81 °FPassing clouds.15 mph28%30.21 "HgN/A
5:30 pm81 °FPassing clouds.14 mph28%30.21 "HgN/A
5:00 pm82 °FPassing clouds.13 mph25%30.21 "HgN/A
4:30 pm82 °FPassing clouds.13 mph28%30.21 "HgN/A
3:30 pm81 °FPassing clouds.12 mph26%30.21 "HgN/A
2:00 pm79 °FPleasantly warm.12 mph32%30.24 "HgN/A
1:00 pm77 °FPleasantly warm.14 mph36%30.24 "HgN/A
12:30 pm75 °FMild.12 mph39%30.24 "HgN/A
12:00 pm73 °FMild.13 mph41%30.24 "HgN/A
11:00 am72 °FMild.10 mph47%30.27 "HgN/A
10:30 am70 °FMild.12 mph50%30.24 "HgN/A
10:00 am68 °FMild.13 mph53%30.24 "HgN/A
9:00 am64 °FMild.13 mph60%30.24 "HgN/A
8:00 am63 °FMild.13 mph64%30.21 "HgN/A
7:00 am59 °FCool.13 mph68%30.21 "HgN/A
6:30 am61 °FCool.12 mph63%30.21 "HgN/A
6:00 am61 °FCool.10 mph63%30.21 "HgN/A
5:30 am61 °FCool.9 mph63%30.21 "HgN/A
5:00 am61 °FCool.9 mph63%30.21 "HgN/A
4:30 am61 °FCool.9 mph63%30.21 "HgN/A
4:00 am63 °FMild.10 mph59%30.21 "HgN/A
3:00 am64 °FMild.12 mph56%30.21 "HgN/A
1:00 am68 °FMild.12 mph43%30.21 "HgN/A
12:30 am68 °FMild.10 mph40%30.21 "HgN/A
12:00 am70 °FMild.10 mph40%30.21 "HgN/A
11:30 pm
Sun, Aug 7
70 °FMild.10 mph40%30.21 "HgN/A
11:00 pm70 °FMild.10 mph40%30.21 "HgN/A
10:00 pm72 °FMild.9 mph38%30.18 "HgN/A
9:30 pm73 °FMild.13 mph36%30.18 "HgN/A
9:00 pm73 °FMild.13 mph36%30.18 "HgN/A
Weather by CustomWeather, © 2022

See weather overview